sensor_id;sensor_type;location;lat;lon;timestamp;P1;durP1;ratioP1;P2;durP2;ratioP2
34924;SDS011;21130;51.728;8.748;2022-09-01T00:01:03;1.85;;;1.30;;
34924;SDS011;21130;51.728;8.748;2022-09-01T00:03:33;2.00;;;1.48;;
34924;SDS011;21130;51.728;8.748;2022-09-01T00:05:59;1.30;;;1.20;;
34924;SDS011;21130;51.728;8.748;2022-09-01T00:08:24;1.40;;;1.30;;
34924;SDS011;21130;51.728;8.748;2022-09-01T00:10:50;2.80;;;1.35;;
34924;SDS011;21130;51.728;8.748;2022-09-01T00:13:15;1.73;;;1.10;;
34924;SDS011;21130;51.728;8.748;2022-09-01T00:15:42;1.80;;;1.23;;
34924;SDS011;21130;51.728;8.748;2022-09-01T00:18:08;1.27;;;1.10;;
34924;SDS011;21130;51.728;8.748;2022-09-01T00:20:34;1.23;;;1.13;;
34924;SDS011;21130;51.728;8.748;2022-09-01T00:23:00;1.85;;;1.33;;
34924;SDS011;21130;51.728;8.748;2022-09-01T00:25:26;1.88;;;1.23;;
34924;SDS011;21130;51.728;8.748;2022-09-01T00:27:52;1.92;;;1.17;;
34924;SDS011;21130;51.728;8.748;2022-09-01T00:30:18;1.58;;;1.42;;
34924;SDS011;21130;51.728;8.748;2022-09-01T00:32:44;1.98;;;1.50;;
34924;SDS011;21130;51.728;8.748;2022-09-01T00:35:11;2.13;;;1.92;;
34924;SDS011;21130;51.728;8.748;2022-09-01T00:37:41;4.47;;;1.98;;
34924;SDS011;21130;51.728;8.748;2022-09-01T00:40:08;2.75;;;1.65;;
34924;SDS011;21130;51.728;8.748;2022-09-01T00:42:35;1.30;;;1.20;;
34924;SDS011;21130;51.728;8.748;2022-09-01T00:45:02;1.58;;;1.20;;
34924;SDS011;21130;51.728;8.748;2022-09-01T00:47:28;1.38;;;1.23;;
34924;SDS011;21130;51.728;8.748;2022-09-01T00:49:54;3.30;;;1.30;;
34924;SDS011;21130;51.728;8.748;2022-09-01T00:52:21;2.75;;;1.30;;
34924;SDS011;21130;51.728;8.748;2022-09-01T00:54:54;1.58;;;1.27;;
34924;SDS011;21130;51.728;8.748;2022-09-01T00:57:22;1.48;;;0.95;;
34924;SDS011;21130;51.728;8.748;2022-09-01T00:59:49;1.42;;;1.20;;
34924;SDS011;21130;51.728;8.748;2022-09-01T01:02:20;1.35;;;1.17;;
34924;SDS011;21130;51.728;8.748;2022-09-01T01:04:47;1.42;;;1.30;;
34924;SDS011;21130;51.728;8.748;2022-09-01T01:07:12;1.10;;;1.00;;
34924;SDS011;21130;51.728;8.748;2022-09-01T01:09:41;3.15;;;1.10;;
34924;SDS011;21130;51.728;8.748;2022-09-01T01:12:07;1.33;;;1.00;;
34924;SDS011;21130;51.728;8.748;2022-09-01T01:14:35;1.20;;;1.02;;
34924;SDS011;21130;51.728;8.748;2022-09-01T01:17:03;1.30;;;1.20;;
34924;SDS011;21130;51.728;8.748;2022-09-01T01:19:39;2.08;;;0.98;;
34924;SDS011;21130;51.728;8.748;2022-09-01T01:22:40;1.50;;;1.40;;
34924;SDS011;21130;51.728;8.748;2022-09-01T01:25:26;4.75;;;1.30;;
34924;SDS011;21130;51.728;8.748;2022-09-01T01:28:04;1.95;;;1.67;;
34924;SDS011;21130;51.728;8.748;2022-09-01T01:30:35;2.10;;;1.50;;
34924;SDS011;21130;51.728;8.748;2022-09-01T01:33:04;1.70;;;1.60;;
34924;SDS011;21130;51.728;8.748;2022-09-01T01:35:30;2.53;;;1.30;;
34924;SDS011;21130;51.728;8.748;2022-09-01T01:37:57;1.50;;;1.13;;
34924;SDS011;21130;51.728;8.748;2022-09-01T01:40:22;1.25;;;1.15;;
34924;SDS011;21130;51.728;8.748;2022-09-01T01:42:49;3.47;;;1.27;;
34924;SDS011;21130;51.728;8.748;2022-09-01T01:45:17;1.35;;;1.15;;
34924;SDS011;21130;51.728;8.748;2022-09-01T01:47:45;1.20;;;1.05;;
34924;SDS011;21130;51.728;8.748;2022-09-01T01:50:17;1.95;;;1.67;;
34924;SDS011;21130;51.728;8.748;2022-09-01T01:52:43;1.65;;;1.20;;
34924;SDS011;21130;51.728;8.748;2022-09-01T01:55:08;1.65;;;1.52;;
34924;SDS011;21130;51.728;8.748;2022-09-01T01:57:34;1.35;;;1.25;;
34924;SDS011;21130;51.728;8.748;2022-09-01T02:00:00;1.30;;;1.20;;
34924;SDS011;21130;51.728;8.748;2022-09-01T02:02:25;1.25;;;1.00;;
34924;SDS011;21130;51.728;8.748;2022-09-01T02:04:51;1.10;;;0.93;;
34924;SDS011;21130;51.728;8.748;2022-09-01T02:07:17;1.58;;;1.00;;
34924;SDS011;21130;51.728;8.748;2022-09-01T02:09:42;1.13;;;1.05;;
34924;SDS011;21130;51.728;8.748;2022-09-01T02:12:10;1.38;;;1.20;;
34924;SDS011;21130;51.728;8.748;2022-09-01T02:14:36;1.13;;;1.02;;
34924;SDS011;21130;51.728;8.748;2022-09-01T02:17:02;1.23;;;1.00;;
34924;SDS011;21130;51.728;8.748;2022-09-01T02:19:31;1.15;;;1.10;;
34924;SDS011;21130;51.728;8.748;2022-09-01T02:21:57;6.88;;;1.23;;
34924;SDS011;21130;51.728;8.748;2022-09-01T02:24:24;1.33;;;1.15;;
34924;SDS011;21130;51.728;8.748;2022-09-01T02:26:50;1.95;;;0.98;;
34924;SDS011;21130;51.728;8.748;2022-09-01T02:29:20;2.70;;;1.17;;
34924;SDS011;21130;51.728;8.748;2022-09-01T02:31:48;1.00;;;0.98;;
34924;SDS011;21130;51.728;8.748;2022-09-01T02:34:15;1.75;;;1.20;;
34924;SDS011;21130;51.728;8.748;2022-09-01T02:36:51;1.67;;;1.58;;
34924;SDS011;21130;51.728;8.748;2022-09-01T02:39:21;3.72;;;1.63;;
34924;SDS011;21130;51.728;8.748;2022-09-01T02:41:52;1.50;;;1.40;;
34924;SDS011;21130;51.728;8.748;2022-09-01T02:44:18;3.75;;;1.60;;
34924;SDS011;21130;51.728;8.748;2022-09-01T02:46:46;1.40;;;1.30;;
34924;SDS011;21130;51.728;8.748;2022-09-01T02:49:16;1.85;;;1.25;;
34924;SDS011;21130;51.728;8.748;2022-09-01T02:51:48;1.25;;;1.20;;
34924;SDS011;21130;51.728;8.748;2022-09-01T02:54:18;2.30;;;1.20;;
34924;SDS011;21130;51.728;8.748;2022-09-01T02:59:13;1.35;;;1.20;;
34924;SDS011;21130;51.728;8.748;2022-09-01T03:01:40;1.15;;;1.10;;
34924;SDS011;21130;51.728;8.748;2022-09-01T03:04:09;1.30;;;1.20;;
34924;SDS011;21130;51.728;8.748;2022-09-01T03:06:37;1.52;;;1.40;;
34924;SDS011;21130;51.728;8.748;2022-09-01T03:09:04;3.80;;;1.50;;
34924;SDS011;21130;51.728;8.748;2022-09-01T03:11:32;1.40;;;1.30;;
34924;SDS011;21130;51.728;8.748;2022-09-01T03:13:59;0.95;;;0.93;;
34924;SDS011;21130;51.728;8.748;2022-09-01T03:16:25;2.53;;;1.17;;
34924;SDS011;21130;51.728;8.748;2022-09-01T03:18:51;2.63;;;1.30;;
34924;SDS011;21130;51.728;8.748;2022-09-01T03:21:17;1.95;;;1.10;;
34924;SDS011;21130;51.728;8.748;2022-09-01T03:23:44;1.35;;;1.25;;
34924;SDS011;21130;51.728;8.748;2022-09-01T03:26:10;1.30;;;1.20;;
34924;SDS011;21130;51.728;8.748;2022-09-01T03:28:36;1.63;;;1.23;;
34924;SDS011;21130;51.728;8.748;2022-09-01T03:31:02;1.45;;;1.10;;
34924;SDS011;21130;51.728;8.748;2022-09-01T03:33:28;1.80;;;1.48;;
34924;SDS011;21130;51.728;8.748;2022-09-01T03:35:54;1.40;;;1.30;;
34924;SDS011;21130;51.728;8.748;2022-09-01T03:38:19;3.63;;;1.30;;
34924;SDS011;21130;51.728;8.748;2022-09-01T03:40:58;1.77;;;1.35;;
34924;SDS011;21130;51.728;8.748;2022-09-01T03:43:25;2.38;;;1.17;;
34924;SDS011;21130;51.728;8.748;2022-09-01T03:46:00;1.63;;;1.17;;
34924;SDS011;21130;51.728;8.748;2022-09-01T03:48:27;1.38;;;1.20;;
34924;SDS011;21130;51.728;8.748;2022-09-01T03:50:54;1.85;;;1.42;;
34924;SDS011;21130;51.728;8.748;2022-09-01T03:53:26;2.58;;;1.30;;
34924;SDS011;21130;51.728;8.748;2022-09-01T03:55:53;1.23;;;1.20;;
34924;SDS011;21130;51.728;8.748;2022-09-01T03:58:22;1.75;;;1.40;;
34924;SDS011;21130;51.728;8.748;2022-09-01T04:00:50;1.60;;;1.45;;
34924;SDS011;21130;51.728;8.748;2022-09-01T04:03:22;3.67;;;1.60;;
34924;SDS011;21130;51.728;8.748;2022-09-01T04:05:49;1.58;;;1.48;;
34924;SDS011;21130;51.728;8.748;2022-09-01T04:08:17;1.63;;;1.52;;
34924;SDS011;21130;51.728;8.748;2022-09-01T04:10:45;1.85;;;1.50;;
34924;SDS011;21130;51.728;8.748;2022-09-01T04:13:15;1.60;;;1.50;;
34924;SDS011;21130;51.728;8.748;2022-09-01T04:15:41;2.58;;;1.50;;
34924;SDS011;21130;51.728;8.748;2022-09-01T04:18:06;1.70;;;1.60;;
34924;SDS011;21130;51.728;8.748;2022-09-01T04:20:37;1.73;;;1.63;;
34924;SDS011;21130;51.728;8.748;2022-09-01T04:23:28;1.65;;;1.33;;
34924;SDS011;21130;51.728;8.748;2022-09-01T04:26:00;1.90;;;1.80;;
34924;SDS011;21130;51.728;8.748;2022-09-01T04:28:34;2.45;;;1.58;;
34924;SDS011;21130;51.728;8.748;2022-09-01T04:31:04;2.45;;;1.50;;
34924;SDS011;21130;51.728;8.748;2022-09-01T04:33:37;2.00;;;1.58;;
34924;SDS011;21130;51.728;8.748;2022-09-01T04:36:14;2.40;;;1.65;;
34924;SDS011;21130;51.728;8.748;2022-09-01T04:38:47;2.47;;;1.60;;
34924;SDS011;21130;51.728;8.748;2022-09-01T04:41:22;3.25;;;1.70;;
34924;SDS011;21130;51.728;8.748;2022-09-01T04:43:50;3.40;;;1.80;;
34924;SDS011;21130;51.728;8.748;2022-09-01T04:46:17;1.92;;;1.80;;
34924;SDS011;21130;51.728;8.748;2022-09-01T04:48:45;3.95;;;1.80;;
34924;SDS011;21130;51.728;8.748;2022-09-01T04:51:12;1.83;;;1.65;;
34924;SDS011;21130;51.728;8.748;2022-09-01T04:53:39;1.98;;;1.67;;
34924;SDS011;21130;51.728;8.748;2022-09-01T04:56:07;1.80;;;1.70;;
34924;SDS011;21130;51.728;8.748;2022-09-01T04:58:36;2.88;;;1.98;;
34924;SDS011;21130;51.728;8.748;2022-09-01T05:01:11;4.32;;;3.35;;
34924;SDS011;21130;51.728;8.748;2022-09-01T05:03:48;3.15;;;2.80;;
34924;SDS011;21130;51.728;8.748;2022-09-01T05:06:21;6.13;;;2.55;;
34924;SDS011;21130;51.728;8.748;2022-09-01T05:08:47;3.58;;;2.70;;
34924;SDS011;21130;51.728;8.748;2022-09-01T05:11:14;3.28;;;2.78;;
34924;SDS011;21130;51.728;8.748;2022-09-01T05:13:43;3.42;;;2.40;;
34924;SDS011;21130;51.728;8.748;2022-09-01T05:16:11;3.88;;;2.10;;
34924;SDS011;21130;51.728;8.748;2022-09-01T05:18:40;3.45;;;2.33;;
34924;SDS011;21130;51.728;8.748;2022-09-01T05:21:12;2.15;;;1.95;;
34924;SDS011;21130;51.728;8.748;2022-09-01T05:23:40;2.80;;;2.28;;
34924;SDS011;21130;51.728;8.748;2022-09-01T05:26:17;4.35;;;2.15;;
34924;SDS011;21130;51.728;8.748;2022-09-01T05:28:48;4.85;;;2.40;;
34924;SDS011;21130;51.728;8.748;2022-09-01T05:31:19;2.92;;;2.40;;
34924;SDS011;21130;51.728;8.748;2022-09-01T05:33:45;3.75;;;2.03;;
34924;SDS011;21130;51.728;8.748;2022-09-01T05:36:17;2.92;;;2.50;;
34924;SDS011;21130;51.728;8.748;2022-09-01T05:38:45;3.47;;;2.30;;
34924;SDS011;21130;51.728;8.748;2022-09-01T05:41:12;3.28;;;2.42;;
34924;SDS011;21130;51.728;8.748;2022-09-01T05:43:43;2.25;;;1.98;;
34924;SDS011;21130;51.728;8.748;2022-09-01T05:46:10;2.20;;;2.00;;
34924;SDS011;21130;51.728;8.748;2022-09-01T05:48:37;4.68;;;2.63;;
34924;SDS011;21130;51.728;8.748;2022-09-01T05:51:06;2.78;;;1.90;;
34924;SDS011;21130;51.728;8.748;2022-09-01T05:53:33;2.15;;;2.05;;
34924;SDS011;21130;51.728;8.748;2022-09-01T05:56:00;3.97;;;2.30;;
34924;SDS011;21130;51.728;8.748;2022-09-01T05:58:30;13.43;;;6.57;;
34924;SDS011;21130;51.728;8.748;2022-09-01T06:00:57;6.57;;;4.53;;
34924;SDS011;21130;51.728;8.748;2022-09-01T06:03:23;4.38;;;3.15;;
34924;SDS011;21130;51.728;8.748;2022-09-01T06:05:49;5.10;;;2.55;;
34924;SDS011;21130;51.728;8.748;2022-09-01T06:08:17;3.28;;;2.30;;
34924;SDS011;21130;51.728;8.748;2022-09-01T06:10:46;11.87;;;2.80;;
34924;SDS011;21130;51.728;8.748;2022-09-01T06:13:12;10.45;;;2.45;;
34924;SDS011;21130;51.728;8.748;2022-09-01T06:15:40;4.13;;;1.80;;
34924;SDS011;21130;51.728;8.748;2022-09-01T06:18:10;5.05;;;1.60;;
34924;SDS011;21130;51.728;8.748;2022-09-01T06:20:43;1.45;;;1.10;;
34924;SDS011;21130;51.728;8.748;2022-09-01T06:23:10;2.67;;;1.58;;
34924;SDS011;21130;51.728;8.748;2022-09-01T06:25:41;2.63;;;1.42;;
34924;SDS011;21130;51.728;8.748;2022-09-01T06:28:11;4.15;;;1.40;;
34924;SDS011;21130;51.728;8.748;2022-09-01T06:30:38;2.17;;;1.35;;
34924;SDS011;21130;51.728;8.748;2022-09-01T06:33:04;2.25;;;1.25;;
34924;SDS011;21130;51.728;8.748;2022-09-01T06:35:33;7.68;;;1.55;;
34924;SDS011;21130;51.728;8.748;2022-09-01T06:38:00;9.50;;;1.30;;
34924;SDS011;21130;51.728;8.748;2022-09-01T06:40:26;3.38;;;1.25;;
34924;SDS011;21130;51.728;8.748;2022-09-01T06:42:52;2.22;;;1.10;;
34924;SDS011;21130;51.728;8.748;2022-09-01T06:45:19;3.13;;;1.10;;
34924;SDS011;21130;51.728;8.748;2022-09-01T06:47:47;3.92;;;1.00;;
34924;SDS011;21130;51.728;8.748;2022-09-01T06:50:15;3.67;;;1.27;;
34924;SDS011;21130;51.728;8.748;2022-09-01T06:52:47;1.65;;;1.10;;
34924;SDS011;21130;51.728;8.748;2022-09-01T06:55:28;3.67;;;1.00;;
34924;SDS011;21130;51.728;8.748;2022-09-01T06:57:55;5.63;;;1.60;;
34924;SDS011;21130;51.728;8.748;2022-09-01T07:00:22;3.53;;;2.10;;
34924;SDS011;21130;51.728;8.748;2022-09-01T07:02:54;1.33;;;1.23;;
34924;SDS011;21130;51.728;8.748;2022-09-01T07:05:21;1.25;;;1.00;;
34924;SDS011;21130;51.728;8.748;2022-09-01T07:07:48;2.50;;;1.20;;
34924;SDS011;21130;51.728;8.748;2022-09-01T07:10:16;2.53;;;1.10;;
34924;SDS011;21130;51.728;8.748;2022-09-01T07:12:56;2.55;;;1.00;;
34924;SDS011;21130;51.728;8.748;2022-09-01T07:15:25;2.42;;;0.85;;
34924;SDS011;21130;51.728;8.748;2022-09-01T07:17:54;6.60;;;1.23;;
34924;SDS011;21130;51.728;8.748;2022-09-01T07:20:25;3.30;;;1.00;;
34924;SDS011;21130;51.728;8.748;2022-09-01T07:22:53;1.67;;;1.00;;
34924;SDS011;21130;51.728;8.748;2022-09-01T07:25:20;1.65;;;0.85;;
34924;SDS011;21130;51.728;8.748;2022-09-01T07:27:45;5.07;;;1.00;;
34924;SDS011;21130;51.728;8.748;2022-09-01T07:30:18;1.70;;;0.70;;
34924;SDS011;21130;51.728;8.748;2022-09-01T07:32:44;0.70;;;0.70;;
34924;SDS011;21130;51.728;8.748;2022-09-01T07:35:11;2.00;;;0.95;;
34924;SDS011;21130;51.728;8.748;2022-09-01T07:37:37;0.70;;;0.70;;
34924;SDS011;21130;51.728;8.748;2022-09-01T07:40:04;3.35;;;2.78;;
34924;SDS011;21130;51.728;8.748;2022-09-01T07:42:32;5.30;;;4.60;;
34924;SDS011;21130;51.728;8.748;2022-09-01T07:44:58;2.15;;;1.10;;
34924;SDS011;21130;51.728;8.748;2022-09-01T07:47:24;1.63;;;0.98;;
34924;SDS011;21130;51.728;8.748;2022-09-01T07:49:53;1.50;;;0.80;;
34924;SDS011;21130;51.728;8.748;2022-09-01T07:52:19;1.73;;;1.00;;
34924;SDS011;21130;51.728;8.748;2022-09-01T07:54:44;1.70;;;0.90;;
34924;SDS011;21130;51.728;8.748;2022-09-01T07:57:10;2.20;;;0.88;;
34924;SDS011;21130;51.728;8.748;2022-09-01T07:59:35;5.25;;;1.10;;
34924;SDS011;21130;51.728;8.748;2022-09-01T08:02:01;1.35;;;1.08;;
34924;SDS011;21130;51.728;8.748;2022-09-01T08:04:29;3.42;;;1.05;;
34924;SDS011;21130;51.728;8.748;2022-09-01T08:06:55;2.65;;;0.90;;
34924;SDS011;21130;51.728;8.748;2022-09-01T08:09:21;2.35;;;1.65;;
34924;SDS011;21130;51.728;8.748;2022-09-01T08:11:47;1.85;;;1.27;;
34924;SDS011;21130;51.728;8.748;2022-09-01T08:20:50;1.50;;;0.90;;
34924;SDS011;21130;51.728;8.748;2022-09-01T08:23:17;2.30;;;2.10;;
34924;SDS011;21130;51.728;8.748;2022-09-01T08:25:44;1.92;;;0.90;;
34924;SDS011;21130;51.728;8.748;2022-09-01T08:28:11;2.63;;;1.20;;
34924;SDS011;21130;51.728;8.748;2022-09-01T08:30:38;1.45;;;1.35;;
34924;SDS011;21130;51.728;8.748;2022-09-01T08:33:06;2.83;;;2.63;;
34924;SDS011;21130;51.728;8.748;2022-09-01T08:35:31;1.52;;;1.20;;
34924;SDS011;21130;51.728;8.748;2022-09-01T08:37:57;1.52;;;1.20;;
34924;SDS011;21130;51.728;8.748;2022-09-01T08:40:23;1.60;;;1.40;;
34924;SDS011;21130;51.728;8.748;2022-09-01T08:42:52;0.93;;;0.82;;
34924;SDS011;21130;51.728;8.748;2022-09-01T08:45:27;1.08;;;0.93;;
34924;SDS011;21130;51.728;8.748;2022-09-01T08:48:15;2.53;;;0.90;;
34924;SDS011;21130;51.728;8.748;2022-09-01T08:50:43;1.90;;;0.70;;
34924;SDS011;21130;51.728;8.748;2022-09-01T08:56:05;1.30;;;0.82;;
34924;SDS011;21130;51.728;8.748;2022-09-01T08:58:35;2.58;;;0.90;;
34924;SDS011;21130;51.728;8.748;2022-09-01T09:01:06;0.93;;;0.80;;
34924;SDS011;21130;51.728;8.748;2022-09-01T09:03:44;3.05;;;0.90;;
34924;SDS011;21130;51.728;8.748;2022-09-01T09:09:28;2.17;;;0.93;;
34924;SDS011;21130;51.728;8.748;2022-09-01T09:15:01;0.95;;;0.65;;
34924;SDS011;21130;51.728;8.748;2022-09-01T09:17:34;2.40;;;0.98;;
34924;SDS011;21130;51.728;8.748;2022-09-01T09:20:17;2.20;;;1.00;;
34924;SDS011;21130;51.728;8.748;2022-09-01T09:22:44;1.45;;;0.88;;
34924;SDS011;21130;51.728;8.748;2022-09-01T09:25:13;1.98;;;0.75;;
34924;SDS011;21130;51.728;8.748;2022-09-01T09:27:43;4.88;;;1.42;;
34924;SDS011;21130;51.728;8.748;2022-09-01T09:30:11;1.83;;;0.80;;
34924;SDS011;21130;51.728;8.748;2022-09-01T09:33:05;1.23;;;0.80;;
34924;SDS011;21130;51.728;8.748;2022-09-01T09:35:38;1.40;;;0.80;;
34924;SDS011;21130;51.728;8.748;2022-09-01T09:40:54;4.40;;;2.38;;
34924;SDS011;21130;51.728;8.748;2022-09-01T09:43:20;2.33;;;2.10;;
34924;SDS011;21130;51.728;8.748;2022-09-01T09:45:47;2.33;;;0.90;;
34924;SDS011;21130;51.728;8.748;2022-09-01T09:48:26;3.92;;;0.95;;
34924;SDS011;21130;51.728;8.748;2022-09-01T09:50:55;1.60;;;0.95;;
34924;SDS011;21130;51.728;8.748;2022-09-01T09:53:38;2.22;;;0.82;;
34924;SDS011;21130;51.728;8.748;2022-09-01T09:56:17;1.80;;;0.93;;
34924;SDS011;21130;51.728;8.748;2022-09-01T09:58:45;1.13;;;0.75;;
34924;SDS011;21130;51.728;8.748;2022-09-01T10:03:48;2.35;;;0.90;;
34924;SDS011;21130;51.728;8.748;2022-09-01T10:06:28;0.90;;;0.80;;
34924;SDS011;21130;51.728;8.748;2022-09-01T10:09:16;1.10;;;0.60;;
34924;SDS011;21130;51.728;8.748;2022-09-01T10:11:58;1.90;;;0.90;;
34924;SDS011;21130;51.728;8.748;2022-09-01T10:14:30;1.67;;;0.77;;
34924;SDS011;21130;51.728;8.748;2022-09-01T10:16:59;2.65;;;1.10;;
34924;SDS011;21130;51.728;8.748;2022-09-01T10:19:28;1.02;;;0.70;;
34924;SDS011;21130;51.728;8.748;2022-09-01T10:22:01;1.02;;;0.80;;
34924;SDS011;21130;51.728;8.748;2022-09-01T10:24:34;3.25;;;0.80;;
34924;SDS011;21130;51.728;8.748;2022-09-01T10:27:05;1.92;;;0.88;;
34924;SDS011;21130;51.728;8.748;2022-09-01T10:29:45;0.90;;;0.80;;
34924;SDS011;21130;51.728;8.748;2022-09-01T10:32:18;2.20;;;0.90;;
34924;SDS011;21130;51.728;8.748;2022-09-01T10:34:47;3.55;;;0.80;;
34924;SDS011;21130;51.728;8.748;2022-09-01T10:37:13;0.65;;;0.60;;
34924;SDS011;21130;51.728;8.748;2022-09-01T10:42:41;0.60;;;0.60;;
34924;SDS011;21130;51.728;8.748;2022-09-01T10:45:17;1.42;;;0.90;;
34924;SDS011;21130;51.728;8.748;2022-09-01T10:50:43;2.33;;;0.80;;
34924;SDS011;21130;51.728;8.748;2022-09-01T10:53:11;1.23;;;0.63;;
34924;SDS011;21130;51.728;8.748;2022-09-01T10:56:10;1.08;;;0.57;;
34924;SDS011;21130;51.728;8.748;2022-09-01T10:58:48;1.58;;;0.80;;
34924;SDS011;21130;51.728;8.748;2022-09-01T11:04:08;1.20;;;0.60;;
34924;SDS011;21130;51.728;8.748;2022-09-01T11:09:06;1.77;;;0.90;;
34924;SDS011;21130;51.728;8.748;2022-09-01T11:11:50;0.93;;;0.70;;
34924;SDS011;21130;51.728;8.748;2022-09-01T11:14:46;1.02;;;0.77;;
34924;SDS011;21130;51.728;8.748;2022-09-01T11:19:46;1.52;;;0.70;;
34924;SDS011;21130;51.728;8.748;2022-09-01T11:22:22;2.00;;;0.95;;
34924;SDS011;21130;51.728;8.748;2022-09-01T11:25:06;2.35;;;0.75;;
34924;SDS011;21130;51.728;8.748;2022-09-01T11:30:30;1.85;;;0.88;;
34924;SDS011;21130;51.728;8.748;2022-09-01T11:33:25;2.10;;;0.82;;
34924;SDS011;21130;51.728;8.748;2022-09-01T11:36:23;2.47;;;1.10;;
34924;SDS011;21130;51.728;8.748;2022-09-01T11:44:12;0.98;;;0.65;;
34924;SDS011;21130;51.728;8.748;2022-09-01T11:46:48;0.70;;;0.70;;
34924;SDS011;21130;51.728;8.748;2022-09-01T11:49:26;2.85;;;1.10;;
34924;SDS011;21130;51.728;8.748;2022-09-01T11:51:54;1.15;;;0.70;;
34924;SDS011;21130;51.728;8.748;2022-09-01T11:54:21;1.90;;;0.80;;
34924;SDS011;21130;51.728;8.748;2022-09-01T11:56:47;1.98;;;0.77;;
34924;SDS011;21130;51.728;8.748;2022-09-01T11:59:12;2.78;;;0.80;;
34924;SDS011;21130;51.728;8.748;2022-09-01T12:01:38;2.45;;;0.82;;
34924;SDS011;21130;51.728;8.748;2022-09-01T12:04:16;1.10;;;0.68;;
34924;SDS011;21130;51.728;8.748;2022-09-01T12:06:55;1.02;;;0.70;;
34924;SDS011;21130;51.728;8.748;2022-09-01T12:09:33;1.77;;;0.90;;
34924;SDS011;21130;51.728;8.748;2022-09-01T12:12:05;2.63;;;0.88;;
34924;SDS011;21130;51.728;8.748;2022-09-01T12:14:31;2.20;;;0.75;;
34924;SDS011;21130;51.728;8.748;2022-09-01T12:17:02;1.48;;;1.00;;
34924;SDS011;21130;51.728;8.748;2022-09-01T12:19:31;0.90;;;0.80;;
34924;SDS011;21130;51.728;8.748;2022-09-01T12:22:03;0.98;;;0.77;;
34924;SDS011;21130;51.728;8.748;2022-09-01T12:24:37;4.97;;;1.50;;
34924;SDS011;21130;51.728;8.748;2022-09-01T12:27:03;1.33;;;0.70;;
34924;SDS011;21130;51.728;8.748;2022-09-01T12:29:28;2.58;;;0.98;;
34924;SDS011;21130;51.728;8.748;2022-09-01T12:31:56;3.47;;;1.27;;
34924;SDS011;21130;51.728;8.748;2022-09-01T12:34:23;4.22;;;1.08;;
34924;SDS011;21130;51.728;8.748;2022-09-01T12:37:09;6.18;;;1.30;;
34924;SDS011;21130;51.728;8.748;2022-09-01T12:39:43;2.15;;;0.77;;
34924;SDS011;21130;51.728;8.748;2022-09-01T12:44:45;3.63;;;0.95;;
34924;SDS011;21130;51.728;8.748;2022-09-01T12:52:49;1.25;;;0.70;;
34924;SDS011;21130;51.728;8.748;2022-09-01T12:55:21;2.30;;;0.50;;
34924;SDS011;21130;51.728;8.748;2022-09-01T12:57:53;1.70;;;0.63;;
34924;SDS011;21130;51.728;8.748;2022-09-01T13:00:22;1.90;;;0.90;;
34924;SDS011;21130;51.728;8.748;2022-09-01T13:02:50;2.60;;;2.33;;
34924;SDS011;21130;51.728;8.748;2022-09-01T13:05:33;1.10;;;0.90;;
34924;SDS011;21130;51.728;8.748;2022-09-01T13:08:00;1.05;;;0.80;;
34924;SDS011;21130;51.728;8.748;2022-09-01T13:10:47;2.47;;;0.82;;
34924;SDS011;21130;51.728;8.748;2022-09-01T13:13:20;2.08;;;0.90;;
34924;SDS011;21130;51.728;8.748;2022-09-01T13:15:49;1.20;;;0.88;;
34924;SDS011;21130;51.728;8.748;2022-09-01T13:18:17;1.73;;;1.00;;
34924;SDS011;21130;51.728;8.748;2022-09-01T13:20:47;1.88;;;0.75;;
34924;SDS011;21130;51.728;8.748;2022-09-01T13:23:13;0.90;;;0.70;;
34924;SDS011;21130;51.728;8.748;2022-09-01T13:25:39;0.77;;;0.70;;
34924;SDS011;21130;51.728;8.748;2022-09-01T13:28:05;9.23;;;0.95;;
34924;SDS011;21130;51.728;8.748;2022-09-01T13:30:32;1.58;;;0.80;;
34924;SDS011;21130;51.728;8.748;2022-09-01T13:32:59;2.15;;;0.60;;
34924;SDS011;21130;51.728;8.748;2022-09-01T13:35:25;1.30;;;0.90;;
34924;SDS011;21130;51.728;8.748;2022-09-01T13:37:50;1.92;;;0.85;;
34924;SDS011;21130;51.728;8.748;2022-09-01T13:40:16;3.05;;;1.60;;
34924;SDS011;21130;51.728;8.748;2022-09-01T13:42:47;5.05;;;2.42;;
34924;SDS011;21130;51.728;8.748;2022-09-01T13:45:15;3.08;;;1.50;;
34924;SDS011;21130;51.728;8.748;2022-09-01T13:47:44;2.35;;;1.20;;
34924;SDS011;21130;51.728;8.748;2022-09-01T13:50:11;4.50;;;1.35;;
34924;SDS011;21130;51.728;8.748;2022-09-01T13:52:39;1.88;;;1.17;;
34924;SDS011;21130;51.728;8.748;2022-09-01T13:55:08;2.60;;;0.95;;
34924;SDS011;21130;51.728;8.748;2022-09-01T13:57:35;3.30;;;1.10;;
34924;SDS011;21130;51.728;8.748;2022-09-01T14:00:00;1.25;;;0.77;;
34924;SDS011;21130;51.728;8.748;2022-09-01T14:03:40;1.48;;;0.80;;
34924;SDS011;21130;51.728;8.748;2022-09-01T14:06:07;1.65;;;0.80;;
34924;SDS011;21130;51.728;8.748;2022-09-01T14:08:33;1.55;;;1.10;;
34924;SDS011;21130;51.728;8.748;2022-09-01T14:10:58;1.70;;;0.90;;
34924;SDS011;21130;51.728;8.748;2022-09-01T14:13:24;2.85;;;1.42;;
34924;SDS011;21130;51.728;8.748;2022-09-01T14:15:50;1.67;;;1.10;;
34924;SDS011;21130;51.728;8.748;2022-09-01T14:18:17;1.05;;;1.00;;
34924;SDS011;21130;51.728;8.748;2022-09-01T14:20:44;1.77;;;1.02;;
34924;SDS011;21130;51.728;8.748;2022-09-01T14:23:11;2.50;;;0.80;;
34924;SDS011;21130;51.728;8.748;2022-09-01T14:25:42;2.45;;;1.20;;
34924;SDS011;21130;51.728;8.748;2022-09-01T14:28:09;1.42;;;0.90;;
34924;SDS011;21130;51.728;8.748;2022-09-01T14:30:34;4.82;;;1.20;;
34924;SDS011;21130;51.728;8.748;2022-09-01T14:33:01;2.25;;;0.88;;
34924;SDS011;21130;51.728;8.748;2022-09-01T14:35:27;2.10;;;0.70;;
34924;SDS011;21130;51.728;8.748;2022-09-01T14:37:55;2.45;;;0.90;;
34924;SDS011;21130;51.728;8.748;2022-09-01T14:40:20;2.03;;;0.60;;
34924;SDS011;21130;51.728;8.748;2022-09-01T14:42:48;1.55;;;0.80;;
34924;SDS011;21130;51.728;8.748;2022-09-01T14:45:21;1.25;;;0.75;;
34924;SDS011;21130;51.728;8.748;2022-09-01T14:47:49;2.65;;;0.82;;
34924;SDS011;21130;51.728;8.748;2022-09-01T14:50:16;2.85;;;0.80;;
34924;SDS011;21130;51.728;8.748;2022-09-01T14:52:42;3.17;;;0.80;;
34924;SDS011;21130;51.728;8.748;2022-09-01T14:55:08;1.27;;;0.60;;
34924;SDS011;21130;51.728;8.748;2022-09-01T14:57:34;2.28;;;0.70;;
34924;SDS011;21130;51.728;8.748;2022-09-01T15:00:00;2.45;;;0.70;;
34924;SDS011;21130;51.728;8.748;2022-09-01T15:02:25;2.83;;;0.73;;
34924;SDS011;21130;51.728;8.748;2022-09-01T15:04:52;1.58;;;0.60;;
34924;SDS011;21130;51.728;8.748;2022-09-01T15:07:18;1.55;;;0.70;;
34924;SDS011;21130;51.728;8.748;2022-09-01T15:09:44;1.55;;;0.60;;
34924;SDS011;21130;51.728;8.748;2022-09-01T15:12:09;1.02;;;0.93;;
34924;SDS011;21130;51.728;8.748;2022-09-01T15:14:35;1.67;;;1.00;;
34924;SDS011;21130;51.728;8.748;2022-09-01T15:17:00;1.67;;;0.80;;
34924;SDS011;21130;51.728;8.748;2022-09-01T15:19:26;1.25;;;1.00;;
34924;SDS011;21130;51.728;8.748;2022-09-01T15:21:51;3.25;;;1.00;;
34924;SDS011;21130;51.728;8.748;2022-09-01T15:24:17;2.75;;;1.02;;
34924;SDS011;21130;51.728;8.748;2022-09-01T15:26:42;1.67;;;0.77;;
34924;SDS011;21130;51.728;8.748;2022-09-01T15:29:12;2.20;;;0.70;;
34924;SDS011;21130;51.728;8.748;2022-09-01T15:31:39;1.33;;;0.75;;
34924;SDS011;21130;51.728;8.748;2022-09-01T15:34:06;4.93;;;0.85;;
34924;SDS011;21130;51.728;8.748;2022-09-01T15:36:33;2.83;;;0.90;;
34924;SDS011;21130;51.728;8.748;2022-09-01T15:39:00;1.48;;;0.63;;
34924;SDS011;21130;51.728;8.748;2022-09-01T15:41:27;2.10;;;0.93;;
34924;SDS011;21130;51.728;8.748;2022-09-01T15:43:54;1.60;;;0.80;;
34924;SDS011;21130;51.728;8.748;2022-09-01T15:46:21;2.08;;;0.80;;
34924;SDS011;21130;51.728;8.748;2022-09-01T15:48:47;14.90;;;1.20;;
34924;SDS011;21130;51.728;8.748;2022-09-01T15:53:48;0.90;;;0.70;;
34924;SDS011;21130;51.728;8.748;2022-09-01T15:56:15;2.05;;;1.17;;
34924;SDS011;21130;51.728;8.748;2022-09-01T15:58:43;1.45;;;0.80;;